Time;durP1;ratioP1;P1;durP2;ratioP2;P2;SDS_P1;SDS_P2;PMS_P1;PMS_P2;Temp;Humidity;BMP_temperature;BMP_pressure;BME280_temperature;BME280_humidity;BME280_pressure;Samples;Min_cycle;Max_cycle;Signal;HPM_P1;HPM_P2
2023/08/02 00:03:52;;;;;;;;;;;;;;;14.93;100.00;95050.16;10530275;28;1893;-82
2023/08/02 00:09:17;;;;;;;;;;;;;;;15.04;100.00;95058.75;10528076;28;1873;-81
2023/08/02 00:14:32;;;;;;;;;;;;;;;14.94;100.00;95043.63;10511779;28;1978;-82
2023/08/02 00:19:48;;;;;;;;;;;;;;;14.96;100.00;95044.13;10525091;28;1921;-81
2023/08/02 00:25:00;;;;;;;;;;;;;;;14.93;100.00;95043.94;10517578;28;1904;-82
2023/08/02 00:35:41;;;;;;;;;;;;;;;14.92;100.00;95042.38;10527991;28;1906;-81
2023/08/02 00:40:55;;;;;;;;;;;;;;;14.93;100.00;95047.44;10507657;28;2342;-80
2023/08/02 00:46:01;;;;;;;;;;;;;;;14.84;100.00;95044.75;10511033;28;2049;-82
2023/08/02 00:51:27;;;;;;;;;;;;;;;14.80;100.00;95037.59;10525760;28;1898;-82
2023/08/02 00:56:37;;;;;;;;;;;;;;;14.71;100.00;95028.69;10516900;28;2301;-82
2023/08/02 01:01:48;;;;;;;;;;;;;;;14.77;100.00;95032.81;10522121;28;1853;-82
2023/08/02 01:07:11;;;;;;;;;;;;;;;14.84;100.00;95035.84;10518856;28;2113;-81
2023/08/02 01:12:35;;;;;;;;;;;;;;;14.82;100.00;95024.53;10523854;28;1977;-81
2023/08/02 01:17:40;;;;;;;;;;;;;;;14.85;100.00;95018.50;10521840;28;1921;-81
2023/08/02 01:22:52;;;;;;;;;;;;;;;15.07;100.00;95010.19;10488322;28;1874;-81
2023/08/02 01:28:05;;;;;;;;;;;;;;;15.08;100.00;95000.19;10515901;28;1980;-81
2023/08/02 01:33:10;;;;;;;;;;;;;;;15.04;100.00;94985.69;10520905;28;2107;-81
2023/08/02 01:38:20;;;;;;;;;;;;;;;14.94;100.00;94978.69;10519690;28;4631;-82
2023/08/02 01:43:29;;;;;;;;;;;;;;;14.85;100.00;94972.50;10504081;28;1869;-82
2023/08/02 01:49:03;;;;;;;;;;;;;;;14.82;100.00;94959.59;10523235;28;1852;-82
2023/08/02 01:54:20;;;;;;;;;;;;;;;14.70;100.00;94956.75;10516058;28;1963;-82
2023/08/02 02:04:58;;;;;;;;;;;;;;;14.32;100.00;94941.13;10522700;28;1903;-82
2023/08/02 02:10:08;;;;;;;;;;;;;;;14.15;100.00;94943.81;10518961;28;2013;-83
2023/08/02 02:15:19;;;;;;;;;;;;;;;14.09;100.00;94942.38;10501070;28;2125;-82
2023/08/02 02:20:22;;;;;;;;;;;;;;;13.96;100.00;94923.28;10517779;28;1937;-81
2023/08/02 02:25:28;;;;;;;;;;;;;;;13.80;100.00;94922.13;10516312;28;1972;-82
2023/08/02 02:30:33;;;;;;;;;;;;;;;13.57;100.00;94920.66;10518255;28;2297;-82
2023/08/02 02:35:51;;;;;;;;;;;;;;;13.58;100.00;94906.03;10524613;28;3228;-82
2023/08/02 02:40:59;;;;;;;;;;;;;;;13.56;100.00;94902.84;10501918;28;1863;-82
2023/08/02 02:46:12;;;;;;;;;;;;;;;13.35;100.00;94903.41;10522501;28;1885;-82
2023/08/02 02:51:26;;;;;;;;;;;;;;;13.37;100.00;94906.59;10502954;28;1881;-81
2023/08/02 02:56:41;;;;;;;;;;;;;;;13.27;100.00;94906.06;10517343;28;1908;-82
2023/08/02 03:01:53;;;;;;;;;;;;;;;13.34;100.00;94909.91;10514153;28;2239;-83
2023/08/02 03:07:15;;;;;;;;;;;;;;;13.14;100.00;94895.03;10515684;28;1872;-82
2023/08/02 03:12:21;;;;;;;;;;;;;;;12.98;100.00;94894.66;10503977;28;2136;-82
2023/08/02 03:17:31;;;;;;;;;;;;;;;13.01;100.00;94871.66;10536965;28;1897;-82
2023/08/02 03:22:42;;;;;;;;;;;;;;;13.08;100.00;94865.81;10530766;28;1944;-82
2023/08/02 03:27:54;;;;;;;;;;;;;;;12.97;100.00;94870.66;10530412;28;2492;-83
2023/08/02 03:33:05;;;;;;;;;;;;;;;12.93;100.00;94872.41;10534214;28;1886;-83
2023/08/02 03:38:25;;;;;;;;;;;;;;;12.79;100.00;94856.31;10515305;28;4523;-83
2023/08/02 03:43:34;;;;;;;;;;;;;;;12.74;100.00;94859.16;10531890;28;1892;-83
2023/08/02 03:48:45;;;;;;;;;;;;;;;12.74;100.00;94855.66;10521128;28;1838;-83
2023/08/02 03:59:28;;;;;;;;;;;;;;;12.79;100.00;94845.53;10522992;28;1924;-83
2023/08/02 04:04:39;;;;;;;;;;;;;;;13.07;100.00;94843.44;10536456;28;1932;-81
2023/08/02 04:09:54;;;;;;;;;;;;;;;13.50;100.00;94832.78;10527024;28;1869;-82
2023/08/02 04:14:57;;;;;;;;;;;;;;;13.89;100.00;94823.00;10515061;28;1956;-83
2023/08/02 04:20:15;;;;;;;;;;;;;;;14.31;100.00;94828.69;10526091;28;2011;-83
2023/08/02 04:25:41;;;;;;;;;;;;;;;14.71;100.00;94817.69;10517633;28;1989;-83
2023/08/02 04:30:47;;;;;;;;;;;;;;;15.07;100.00;94811.81;10512860;28;1908;-81
2023/08/02 04:36:03;;;;;;;;;;;;;;;15.34;100.00;94803.25;10516396;28;4566;-82
2023/08/02 04:41:10;;;;;;;;;;;;;;;15.72;100.00;94788.09;10525474;28;1920;-82
2023/08/02 04:46:14;;;;;;;;;;;;;;;16.03;100.00;94791.19;10526878;28;1922;-81
2023/08/02 04:51:25;;;;;;;;;;;;;;;15.67;100.00;94770.88;10527315;28;1857;-81
2023/08/02 05:02:19;;;;;;;;;;;;;;;15.62;100.00;94754.81;10529056;28;2039;-81
2023/08/02 05:07:23;;;;;;;;;;;;;;;15.62;100.00;94754.81;10523653;28;1900;-81
2023/08/02 05:12:31;;;;;;;;;;;;;;;15.68;100.00;94753.50;10529795;28;1902;-82
2023/08/02 05:17:38;;;;;;;;;;;;;;;15.82;100.00;94741.59;10500089;28;2218;-81
2023/08/02 05:28:07;;;;;;;;;;;;;;;16.39;100.00;94730.84;10521743;28;1857;-81
2023/08/02 05:33:12;;;;;;;;;;;;;;;16.95;100.00;94727.69;10517697;28;2223;-81
2023/08/02 05:38:17;;;;;;;;;;;;;;;17.03;100.00;94718.63;10519165;28;4536;-79
2023/08/02 05:43:21;;;;;;;;;;;;;;;17.01;100.00;94707.34;10522674;28;1818;-76
2023/08/02 05:48:33;;;;;;;;;;;;;;;16.89;100.00;94712.75;10508514;28;1803;-75
2023/08/02 05:53:40;;;;;;;;;;;;;;;16.87;100.00;94704.16;10523710;28;1963;-77
2023/08/02 05:58:44;;;;;;;;;;;;;;;16.81;100.00;94700.09;10526855;28;1976;-76
2023/08/02 06:03:47;;;;;;;;;;;;;;;16.81;100.00;94691.97;10507137;28;1885;-76
2023/08/02 06:08:51;;;;;;;;;;;;;;;16.84;100.00;94685.84;10503201;28;1904;-74
2023/08/02 06:13:57;;;;;;;;;;;;;;;16.90;100.00;94690.69;10511427;28;1960;-74
2023/08/02 06:19:00;;;;;;;;;;;;;;;17.00;100.00;94689.47;10517458;28;2457;-74
2023/08/02 06:24:05;;;;;;;;;;;;;;;16.91;100.00;94697.69;10526008;28;1905;-72
2023/08/02 06:34:29;;;;;;;;;;;;;;;16.88;100.00;94717.41;10498263;28;1894;-75
2023/08/02 06:39:36;;;;;;;;;;;;;;;16.69;100.00;94728.78;10521575;28;4256;-76
2023/08/02 06:44:44;;;;;;;;;;;;;;;16.83;100.00;94728.47;10509369;28;1939;-75
2023/08/02 06:49:49;;;;;;;;;;;;;;;16.63;100.00;94738.25;10530009;28;1873;-75
2023/08/02 06:54:52;;;;;;;;;;;;;;;16.18;100.00;94746.41;10510626;28;2092;-76
2023/08/02 07:00:03;;;;;;;;;;;;;;;15.90;100.00;94765.94;10505744;28;1841;-78
2023/08/02 07:05:07;;;;;;;;;;;;;;;15.75;100.00;94768.44;10532334;28;1920;-77
2023/08/02 07:10:15;;;;;;;;;;;;;;;15.47;100.00;94778.97;10517409;28;1853;-77
2023/08/02 07:15:23;;;;;;;;;;;;;;;15.34;100.00;94788.94;10514510;28;2181;-77
2023/08/02 07:20:31;;;;;;;;;;;;;;;15.45;100.00;94787.41;10534729;28;2086;-82
2023/08/02 07:26:05;;;;;;;;;;;;;;;15.60;100.00;94789.56;10524008;28;1872;-79
2023/08/02 07:31:15;;;;;;;;;;;;;;;15.76;100.00;94778.16;10527021;28;1904;-79
2023/08/02 07:36:23;;;;;;;;;;;;;;;15.74;100.00;94783.13;10534097;28;4995;-79
2023/08/02 07:41:34;;;;;;;;;;;;;;;16.06;100.00;94774.25;10508925;28;2228;-80
2023/08/02 07:46:46;;;;;;;;;;;;;;;16.40;100.00;94788.59;10525559;28;2043;-79
2023/08/02 07:52:09;;;;;;;;;;;;;;;16.14;100.00;94803.19;10528563;28;2030;-78
2023/08/02 07:57:21;;;;;;;;;;;;;;;16.09;100.00;94800.69;10529003;28;2008;-78
2023/08/02 08:02:28;;;;;;;;;;;;;;;16.45;100.00;94786.47;10525564;28;1930;-79
2023/08/02 08:07:38;;;;;;;;;;;;;;;16.66;100.00;94780.19;10533750;28;1963;-82
2023/08/02 08:12:54;;;;;;;;;;;;;;;16.82;100.00;94772.25;10514510;28;2400;-83
2023/08/02 08:18:01;;;;;;;;;;;;;;;16.93;100.00;94771.47;10519117;28;2218;-82
2023/08/02 08:23:26;;;;;;;;;;;;;;;16.77;100.00;94769.75;10529893;28;1915;-84
2023/08/02 08:28:41;;;;;;;;;;;;;;;16.43;100.00;94760.81;10504195;28;1966;-80
2023/08/02 08:33:52;;;;;;;;;;;;;;;16.39;100.00;94759.91;10531068;28;1958;-80
2023/08/02 08:39:03;;;;;;;;;;;;;;;16.46;100.00;94755.50;10530692;28;2109;-81
2023/08/02 08:44:31;;;;;;;;;;;;;;;16.55;100.00;94752.72;10529270;28;1989;-80
2023/08/02 08:49:40;;;;;;;;;;;;;;;16.46;100.00;94749.28;10516338;28;1968;-80
2023/08/02 09:00:21;;;;;;;;;;;;;;;16.77;100.00;94748.81;10530665;28;2117;-82
2023/08/02 09:05:25;;;;;;;;;;;;;;;16.74;100.00;94754.94;10506283;28;2357;-79
2023/08/02 09:10:30;;;;;;;;;;;;;;;16.92;100.00;94760.94;10281285;28;6639633;-81
2023/08/02 09:15:34;;;;;;;;;;;;;;;16.95;100.00;94739.34;10529531;28;2160;-81
2023/08/02 09:20:42;;;;;;;;;;;;;;;16.92;100.00;94740.03;10523484;28;2020;-81
2023/08/02 09:25:50;;;;;;;;;;;;;;;17.10;100.00;94743.28;10530117;28;2096;-81
2023/08/02 09:30:55;;;;;;;;;;;;;;;17.10;100.00;94739.78;10521818;28;2075;-81
2023/08/02 09:36:02;;;;;;;;;;;;;;;17.05;100.00;94726.44;10526684;28;2031;-80
2023/08/02 09:41:05;;;;;;;;;;;;;;;17.08;100.00;94726.56;10527296;28;1951;-80
2023/08/02 09:52:05;;;;;;;;;;;;;;;16.81;100.00;94719.09;10519166;28;2047;-79
2023/08/02 09:57:09;;;;;;;;;;;;;;;16.43;100.00;94707.38;10526813;28;2023;-79
2023/08/02 10:02:14;;;;;;;;;;;;;;;16.45;100.00;94701.59;10529363;28;2270;-78
2023/08/02 10:07:20;;;;;;;;;;;;;;;16.19;100.00;94680.97;10501778;28;1973;-79
2023/08/02 10:12:50;;;;;;;;;;;;;;;16.21;100.00;94678.72;10524878;28;2008;-79
2023/08/02 10:17:55;;;;;;;;;;;;;;;16.13;100.00;94663.34;10500919;28;2240;-77
2023/08/02 10:22:59;;;;;;;;;;;;;;;16.18;100.00;94641.44;10494205;28;1935;-78
2023/08/02 10:28:04;;;;;;;;;;;;;;;15.97;100.00;94627.19;10521844;28;1990;-80
2023/08/02 10:33:23;;;;;;;;;;;;;;;16.12;100.00;94615.69;10525341;28;1939;-80
2023/08/02 10:38:30;;;;;;;;;;;;;;;16.19;100.00;94596.94;10522017;28;4609;-78
2023/08/02 10:43:45;;;;;;;;;;;;;;;16.35;100.00;94572.66;10529325;28;1910;-79
2023/08/02 10:49:01;;;;;;;;;;;;;;;16.69;100.00;94563.25;10503174;28;2000;-79
2023/08/02 10:54:30;;;;;;;;;;;;;;;18.13;100.00;94544.34;10521704;28;1987;-77
2023/08/02 10:59:33;;;;;;;;;;;;;;;19.90;100.00;94510.38;10519359;28;2325;-77
2023/08/02 11:04:42;;;;;;;;;;;;;;;20.36;100.00;94477.59;10528357;28;2055;-79
2023/08/02 11:09:59;;;;;;;;;;;;;;;20.71;100.00;94474.63;10514562;28;1943;-78
2023/08/02 11:15:05;;;;;;;;;;;;;;;21.66;100.00;94455.06;10500387;28;2291;-79
2023/08/02 11:20:19;;;;;;;;;;;;;;;21.39;100.00;94451.69;10522084;28;1983;-79
2023/08/02 11:25:34;;;;;;;;;;;;;;;22.75;100.00;94426.19;10506872;28;2180;-79
2023/08/02 11:36:15;;;;;;;;;;;;;;;23.33;100.00;94410.75;10516900;28;4532;-78
2023/08/02 11:41:25;;;;;;;;;;;;;;;22.42;100.00;94405.25;10506081;28;1977;-80
2023/08/02 11:51:55;;;;;;;;;;;;;;;21.90;100.00;94385.34;10532597;28;1968;-78
2023/08/02 11:57:04;;;;;;;;;;;;;;;21.50;100.00;94373.31;10507872;28;2310;-79
2023/08/02 12:02:10;;;;;;;;;;;;;;;21.28;100.00;94357.81;10530198;28;2127;-78
2023/08/02 12:07:15;;;;;;;;;;;;;;;21.52;100.00;94362.75;10531646;28;1849;-78
2023/08/02 12:12:22;;;;;;;;;;;;;;;21.58;100.00;94333.91;10522208;28;1886;-77
2023/08/02 12:17:27;;;;;;;;;;;;;;;21.94;100.00;94323.22;10527215;28;2071;-77
2023/08/02 12:22:31;;;;;;;;;;;;;;;22.45;100.00;94311.41;10526472;28;1888;-77
2023/08/02 12:27:37;;;;;;;;;;;;;;;22.75;100.00;94299.38;10514868;28;1888;-77
2023/08/02 12:33:09;;;;;;;;;;;;;;;22.81;100.00;94298.63;10537520;28;1790;-76
2023/08/02 12:38:14;;;;;;;;;;;;;;;23.32;100.00;94283.84;10521441;28;1922;-77
2023/08/02 12:43:18;;;;;;;;;;;;;;;23.68;100.00;94281.94;10522729;28;1897;-77
2023/08/02 12:48:24;;;;;;;;;;;;;;;23.83;100.00;94279.94;10523240;28;1904;-78
2023/08/02 12:53:29;;;;;;;;;;;;;;;23.96;100.00;94270.13;10524719;28;2350;-76
2023/08/02 12:58:34;;;;;;;;;;;;;;;24.02;100.00;94265.00;10504036;28;1914;-78
2023/08/02 13:03:37;;;;;;;;;;;;;;;24.27;100.00;94248.47;10519928;28;1964;-77
2023/08/02 13:08:48;;;;;;;;;;;;;;;24.38;100.00;94246.50;10527654;28;1847;-78
2023/08/02 13:13:56;;;;;;;;;;;;;;;24.54;100.00;94243.28;10510515;28;1912;-77
2023/08/02 13:19:06;;;;;;;;;;;;;;;24.36;100.00;94234.31;10514787;28;2379;-77
2023/08/02 13:24:18;;;;;;;;;;;;;;;24.54;100.00;94235.81;10526221;28;1925;-77
2023/08/02 13:29:24;;;;;;;;;;;;;;;24.59;100.00;94225.59;10512342;28;1896;-77
2023/08/02 13:34:31;;;;;;;;;;;;;;;24.99;100.00;94224.16;10509312;28;2026;-78
2023/08/02 13:39:43;;;;;;;;;;;;;;;24.98;100.00;94206.13;10504977;28;4561;-78
2023/08/02 13:44:49;;;;;;;;;;;;;;;25.13;100.00;94204.06;10525762;28;1911;-78
2023/08/02 13:50:03;;;;;;;;;;;;;;;25.53;100.00;94199.81;10527415;28;2302;-79
2023/08/02 13:55:40;;;;;;;;;;;;;;;25.38;100.00;94199.13;10502739;28;2077;-80
2023/08/02 14:00:51;;;;;;;;;;;;;;;25.80;100.00;94192.47;10504747;28;1906;-80
2023/08/02 14:05:57;;;;;;;;;;;;;;;25.99;100.00;94182.06;10507948;28;2197;-79
2023/08/02 14:10:59;;;;;;;;;;;;;;;26.18;100.00;94173.19;10504235;28;1900;-78
2023/08/02 14:16:03;;;;;;;;;;;;;;;26.38;100.00;94165.06;10521593;28;1969;-77
2023/08/02 14:21:18;;;;;;;;;;;;;;;26.43;100.00;94155.56;10527520;28;2027;-76
2023/08/02 14:26:22;;;;;;;;;;;;;;;26.65;100.00;94145.81;10528110;28;1913;-75
2023/08/02 14:31:30;;;;;;;;;;;;;;;26.26;100.00;94138.84;10505979;28;2038;-78
2023/08/02 14:36:44;;;;;;;;;;;;;;;26.32;100.00;94128.91;10523562;28;4566;-78
2023/08/02 14:41:49;;;;;;;;;;;;;;;26.33;100.00;94137.97;10521927;28;2091;-78
2023/08/02 14:47:03;;;;;;;;;;;;;;;26.06;100.00;94143.44;10526670;28;2329;-77
2023/08/02 14:57:25;;;;;;;;;;;;;;;26.18;100.00;94100.78;10530132;28;1953;-77
2023/08/02 15:02:30;;;;;;;;;;;;;;;26.23;100.00;94092.84;10508422;28;1829;-77
2023/08/02 15:07:35;;;;;;;;;;;;;;;26.26;100.00;94089.25;10532592;28;1842;-77
2023/08/02 15:12:40;;;;;;;;;;;;;;;26.59;100.00;94092.34;10513805;28;1919;-78
2023/08/02 15:17:47;;;;;;;;;;;;;;;26.34;100.00;94067.94;10531714;28;1917;-77
2023/08/02 15:22:53;;;;;;;;;;;;;;;26.54;100.00;94090.09;10497359;28;1880;-79
2023/08/02 15:28:14;;;;;;;;;;;;;;;26.36;100.00;94082.06;10533349;28;1904;-75
2023/08/02 15:33:18;;;;;;;;;;;;;;;27.63;100.00;94074.84;10532035;28;1942;-76
2023/08/02 15:38:24;;;;;;;;;;;;;;;27.69;100.00;94075.94;10511132;28;4619;-75
2023/08/02 15:43:29;;;;;;;;;;;;;;;27.83;100.00;94077.63;10527261;28;2385;-77
2023/08/02 15:48:41;;;;;;;;;;;;;;;27.52;98.94;94068.75;10530203;28;1853;-77
2023/08/02 15:53:44;;;;;;;;;;;;;;;28.12;97.46;94066.75;10527439;28;2267;-76
2023/08/02 15:58:48;;;;;;;;;;;;;;;28.00;95.34;94052.41;10535213;28;2019;-75
2023/08/02 16:03:58;;;;;;;;;;;;;;;27.74;98.04;94050.59;10531586;28;1945;-74
2023/08/02 16:09:03;;;;;;;;;;;;;;;27.51;100.00;94050.63;10525438;28;2091;-74
2023/08/02 16:14:08;;;;;;;;;;;;;;;27.56;100.00;94023.31;10531092;28;1939;-74
2023/08/02 16:19:13;;;;;;;;;;;;;;;27.01;100.00;94023.94;10509743;28;1938;-74
2023/08/02 16:24:16;;;;;;;;;;;;;;;26.16;100.00;94021.34;10530214;28;1979;-74
2023/08/02 16:29:24;;;;;;;;;;;;;;;25.98;100.00;94023.59;10522636;28;1904;-74
2023/08/02 16:34:38;;;;;;;;;;;;;;;26.03;100.00;94020.38;10520120;28;1908;-75
2023/08/02 16:39:46;;;;;;;;;;;;;;;26.07;100.00;94018.31;10526215;28;4581;-75
2023/08/02 16:44:55;;;;;;;;;;;;;;;25.85;100.00;94026.91;10527628;28;2071;-75
2023/08/02 16:50:05;;;;;;;;;;;;;;;25.72;100.00;94019.56;10520445;28;1967;-75
2023/08/02 16:55:10;;;;;;;;;;;;;;;25.67;100.00;93998.78;10527731;28;1996;-76
2023/08/02 17:00:24;;;;;;;;;;;;;;;25.52;100.00;94000.19;10507734;28;1997;-74
2023/08/02 17:05:29;;;;;;;;;;;;;;;25.31;100.00;93979.97;10527239;28;1957;-73
2023/08/02 17:10:33;;;;;;;;;;;;;;;25.23;100.00;93985.97;10511656;28;2127;-74
2023/08/02 17:20:59;;;;;;;;;;;;;;;24.45;100.00;93995.75;10523538;28;1857;-74
2023/08/02 17:26:04;;;;;;;;;;;;;;;24.43;100.00;94004.41;10517868;28;1920;-73
2023/08/02 17:31:07;;;;;;;;;;;;;;;24.20;100.00;94040.63;10515089;28;1877;-76
2023/08/02 17:36:13;;;;;;;;;;;;;;;24.05;100.00;94035.63;10521367;28;2011;-73
2023/08/02 17:41:22;;;;;;;;;;;;;;;24.03;100.00;94014.06;10512063;28;1861;-74
2023/08/02 17:46:27;;;;;;;;;;;;;;;23.84;100.00;94011.84;10515662;28;1892;-74
2023/08/02 17:51:35;;;;;;;;;;;;;;;23.42;100.00;93995.19;10520140;28;1873;-83
2023/08/02 17:56:56;;;;;;;;;;;;;;;23.36;100.00;93983.06;10524165;28;1992;-82
2023/08/02 18:02:14;;;;;;;;;;;;;;;23.06;100.00;94002.75;10539076;28;1951;-95
2023/08/02 18:07:38;;;;;;;;;;;;;;;22.88;100.00;94032.13;10566623;28;1934;-94
2023/08/02 18:13:05;;;;;;;;;;;;;;;22.72;100.00;94029.03;10562240;27;1795;-92
2023/08/02 18:18:42;;;;;;;;;;;;;;;22.11;100.00;94059.88;10564411;28;1940;-90
2023/08/02 18:29:36;;;;;;;;;;;;;;;21.86;100.00;94048.06;10576888;27;2414;-94
2023/08/02 18:34:44;;;;;;;;;;;;;;;21.90;100.00;94043.41;10549770;28;1818;-86
2023/08/02 18:39:56;;;;;;;;;;;;;;;21.90;100.00;94046.13;10534470;28;1991;-89
2023/08/02 18:45:03;;;;;;;;;;;;;;;21.90;100.00;94059.03;10547491;28;2206;-91
2023/08/02 18:55:44;;;;;;;;;;;;;;;21.99;100.00;94062.16;10579418;28;1865;-89
2023/08/02 19:00:52;;;;;;;;;;;;;;;22.02;100.00;94062.19;10580219;27;1974;-90
2023/08/02 19:05:58;;;;;;;;;;;;;;;22.02;100.00;94050.47;10584683;28;2076;-89
2023/08/02 19:11:08;;;;;;;;;;;;;;;21.91;100.00;94066.84;10574649;28;1642;-90
2023/08/02 19:16:13;;;;;;;;;;;;;;;21.92;100.00;94109.44;10530912;28;1918;-87
2023/08/02 19:21:20;;;;;;;;;;;;;;;21.96;100.00;94101.25;10558040;28;1997;-89
2023/08/02 19:27:10;;;;;;;;;;;;;;;21.82;100.00;94093.78;10537665;28;1949;-90
2023/08/02 19:32:20;;;;;;;;;;;;;;;21.75;100.00;94096.47;10535941;28;1957;-90
2023/08/02 19:37:58;;;;;;;;;;;;;;;21.58;100.00;94125.34;10545793;28;1957;-92
2023/08/02 19:43:27;;;;;;;;;;;;;;;21.57;100.00;94113.63;10543541;28;1856;-78
2023/08/02 19:48:41;;;;;;;;;;;;;;;21.57;100.00;94116.34;10510611;28;1839;-84
2023/08/02 19:53:51;;;;;;;;;;;;;;;21.61;100.00;94124.56;10503444;28;1885;-82
2023/08/02 19:59:02;;;;;;;;;;;;;;;21.54;100.00;94128.03;10520546;28;1909;-81
2023/08/02 20:04:13;;;;;;;;;;;;;;;21.46;100.00;94134.66;10502390;28;1899;-82
2023/08/02 20:09:28;;;;;;;;;;;;;;;21.56;100.00;94128.44;10524201;28;1885;-82
2023/08/02 20:14:37;;;;;;;;;;;;;;;21.53;100.00;94112.03;10524444;28;1908;-83
2023/08/02 20:19:40;;;;;;;;;;;;;;;21.52;100.00;94129.59;10496788;28;1933;-84
2023/08/02 20:30:09;;;;;;;;;;;;;;;21.57;100.00;94192.91;10517399;28;2060;-82
2023/08/02 20:35:24;;;;;;;;;;;;;;;21.49;100.00;94242.44;10524539;28;2131;-84
2023/08/02 20:40:28;;;;;;;;;;;;;;;21.04;100.00;94310.75;10522677;28;4572;-85
2023/08/02 20:45:34;;;;;;;;;;;;;;;20.70;100.00;94307.28;10525529;28;1884;-86
2023/08/02 20:50:46;;;;;;;;;;;;;;;20.23;100.00;94351.50;10525815;28;1888;-84
2023/08/02 20:55:50;;;;;;;;;;;;;;;19.92;100.00;94353.44;10528347;28;1961;-88
2023/08/02 21:00:55;;;;;;;;;;;;;;;19.91;100.00;94373.66;10536999;28;1993;-85
2023/08/02 21:06:02;;;;;;;;;;;;;;;19.88;100.00;94371.66;10531105;28;2173;-86
2023/08/02 21:11:10;;;;;;;;;;;;;;;19.80;100.00;94347.41;10530143;28;1898;-91
2023/08/02 21:16:27;;;;;;;;;;;;;;;19.68;100.00;94334.75;10527391;28;1821;-87
2023/08/02 21:21:34;;;;;;;;;;;;;;;19.59;100.00;94323.28;10528020;28;2389;-87
2023/08/02 21:26:40;;;;;;;;;;;;;;;19.44;100.00;94322.25;10515845;28;1942;-86
2023/08/02 21:31:53;;;;;;;;;;;;;;;19.36;100.00;94339.66;10520928;28;1975;-85
2023/08/02 21:36:59;;;;;;;;;;;;;;;19.05;100.00;94363.25;10523328;28;4550;-85
2023/08/02 21:42:02;;;;;;;;;;;;;;;19.01;100.00;94384.16;10526231;28;2251;-85
2023/08/02 21:47:05;;;;;;;;;;;;;;;18.92;100.00;94391.00;10521575;28;2026;-85
2023/08/02 21:52:24;;;;;;;;;;;;;;;19.04;100.00;94416.13;10525000;28;1962;-84
2023/08/02 21:57:33;;;;;;;;;;;;;;;19.13;100.00;94433.03;10521304;28;1927;-86
2023/08/02 22:02:44;;;;;;;;;;;;;;;19.17;100.00;94436.63;10522023;28;1907;-85
2023/08/02 22:07:51;;;;;;;;;;;;;;;19.24;100.00;94449.59;10506238;28;1908;-85
2023/08/02 22:13:00;;;;;;;;;;;;;;;19.25;100.00;94464.00;10522063;28;1944;-86
2023/08/02 22:18:17;;;;;;;;;;;;;;;19.39;100.00;94475.16;10515860;28;1971;-88
2023/08/02 22:23:24;;;;;;;;;;;;;;;19.47;100.00;94481.50;10520135;28;2107;-87
2023/08/02 22:28:27;;;;;;;;;;;;;;;19.57;100.00;94498.06;10523611;28;1956;-88
2023/08/02 22:38:52;;;;;;;;;;;;;;;18.73;100.00;94527.91;10529721;28;4576;-88
2023/08/02 22:43:58;;;;;;;;;;;;;;;18.17;100.00;94542.50;10536045;28;1953;-86
2023/08/02 22:49:02;;;;;;;;;;;;;;;17.69;100.00;94571.56;10532918;28;1892;-89
2023/08/02 22:54:09;;;;;;;;;;;;;;;17.25;100.00;94592.47;10533200;28;1877;-87
2023/08/02 22:59:16;;;;;;;;;;;;;;;16.79;100.00;94555.78;10523119;28;1909;-85
2023/08/02 23:04:24;;;;;;;;;;;;;;;16.36;100.00;94574.25;10537191;28;1916;-87
2023/08/02 23:09:29;;;;;;;;;;;;;;;16.43;100.00;94570.97;10534971;28;2170;-88
2023/08/02 23:14:51;;;;;;;;;;;;;;;16.12;100.00;94561.47;10542346;28;1837;-86
2023/08/02 23:19:55;;;;;;;;;;;;;;;15.94;100.00;94562.78;10529049;28;1990;-85
2023/08/02 23:25:11;;;;;;;;;;;;;;;15.88;100.00;94573.06;10531795;28;1811;-84
2023/08/02 23:30:19;;;;;;;;;;;;;;;16.00;100.00;94568.78;10523296;28;1929;-85
2023/08/02 23:35:37;;;;;;;;;;;;;;;16.38;100.00;94549.50;10535039;28;2323;-84
2023/08/02 23:40:45;;;;;;;;;;;;;;;16.39;100.00;94586.31;10523528;28;1913;-83
2023/08/02 23:45:51;;;;;;;;;;;;;;;16.01;100.00;94592.06;10518788;28;1883;-84
2023/08/02 23:50:58;;;;;;;;;;;;;;;16.10;100.00;94592.75;10511267;28;1853;-85
2023/08/02 23:56:08;;;;;;;;;;;;;;;16.15;100.00;94592.50;10535907;28;1536;-88
